Home > Products > Valid Products > TAF

000
FTUS44 KMAF 221100
TAFMAF
TAF
KMAF 221121Z 2212/2312 18011KT P6SM SCT200
     FM221400 17015G22KT P6SM FEW070 SCT250=



000
FTUS44 KMAF 220900 AAA
TAFMAF
TAF AMD
KMAF 220944Z 2210/2306 17010KT P6SM FEW200 WS020/18030KT
     FM221400 17015G22KT P6SM FEW070 SCT250=



000
FTUS44 KMAF 220500
TAFMAF
TAF
KMAF 220522Z 2206/2306 16010KT P6SM FEW150 SCT200
     FM221400 17015G22KT P6SM FEW050 SCT250=



000
FTUS44 KMAF 220100 AAB
TAFMAF
TAF AMD
KMAF 220118Z 2201/2224 17012G20KT P6SM FEW050
      TEMPO 2201/2202 VRB25G35KT 1/2SM -TSRA BLDU SCT050CB
     FM220200 16010KT P6SM SCT150
     FM221400 17014G22KT P6SM FEW050=



000
FTUS44 KMAF 220000 AAA
TAFMAF
TAF AMD
KMAF 220016Z 2200/2224 17012G20KT P6SM FEW050
      TEMPO 2200/2202 VRB20G30KT -TSRA SCT050CB
     FM220200 16010KT P6SM SCT150
     FM221400 17014G22KT P6SM FEW050=



000
FTUS44 KMAF 212300
TAFMAF
TAF
KMAF 212327Z 2200/2224 17012G20KT P6SM FEW050
     FM220200 16010KT P6SM SCT150
     FM221400 17014G22KT P6SM FEW050=



000
FTUS44 KMAF 211700
TAFMAF
TAF
KMAF 211720Z 2118/2218 17014G22KT P6SM SCT050 BKN250
     FM220100 16010KT P6SM SCT200=



000
FTUS44 KMAF 211300 AAA
TAFMAF
TAF AMD
KMAF 211342Z 2114/2212 17015KT P6SM BKN250
     FM211600 17016G26KT P6SM SCT040 SCT250
     FM220100 16013KT P6SM BKN200=



000
FTUS44 KMAF 211100
TAFMAF
TAF
KMAF 211121Z 2112/2212 17015KT P6SM BKN250
      TEMPO 2113/2115 BKN007
     FM211600 17016G26KT P6SM SCT040 SCT250
     FM220100 16013KT P6SM BKN200=



000
FTUS44 KMAF 210500
TAFMAF
TAF
KMAF 210536Z 2106/2206 17015KT P6SM BKN250
     FM211600 17016G26KT P6SM SCT040 SCT250
     FM220100 16013KT P6SM BKN200=



000
FTUS44 KMAF 202300
TAFMAF
TAF
KMAF 202336Z 2100/2124 16010G20KT P6SM SCT080 SCT250
      TEMPO 2100/2102 VRB20G45KT 3SM TSRA BKN070CB
     FM210200 16011KT P6SM SCT200
      TEMPO 2112/2114 BKN010
     FM211500 17011G22KT P6SM SCT050=



000
FTUS44 KMAF 202200 AAA
TAFMAF
TAF AMD
KMAF 202206Z 2022/2118 19011G24KT P6SM VCTS SCT080CB SCT250
      TEMPO 2022/2024 VRB20G30KT
     FM210100 16011KT P6SM SCT200=



000
FTUS44 KMAF 201700
TAFMAF
TAF
KMAF 201721Z 2018/2118 19011G24KT P6SM SCT080 SCT250
     FM210100 16011KT P6SM SCT200=



000
FTUS44 KMAF 201600 AAA
TAFMAF
TAF AMD
KMAF 201628Z 2016/2112 18010KT P6SM SCT250
      TEMPO 2016/2020 19010G20KT
     FM210100 17008KT P6SM SCT200=



000
FTUS44 KMAF 201200 AAA
TAFMAF
TAF AMD
KMAF 201251Z 2013/2112 17010KT P6SM SCT250
     FM201600 17012G22KT P6SM SCT100 SCT250
     FM210100 17008KT P6SM SCT200=



000
FTUS44 KMAF 201100
TAFMAF
TAF
KMAF 201120Z 2012/2112 17010KT P6SM SKC
     FM201600 17012G22KT P6SM SCT050 SCT250
     FM210100 17008KT P6SM SCT200=



000
FTUS44 KMAF 200500
TAFMAF
TAF
KMAF 200526Z 2006/2106 16014KT P6SM SKC
     FM201600 17016G26KT P6SM SCT050 SCT250
     FM210100 16013KT P6SM FEW200=



000
FTUS44 KMAF 192300
TAFMAF
TAF
KMAF 192321Z 2000/2024 17013G20KT P6SM FEW080 SCT250
     FM200500 16010KT P6SM FEW120 SCT250
     FM201500 18014KT P6SM FEW100 SCT250=



000
FTUS44 KMAF 191700
TAFMAF
TAF
KMAF 191720Z 1918/2018 17013G18KT P6SM FEW100
     FM200500 16010KT P6SM FEW150
     FM201500 18014KT P6SM FEW150=



    US Dept of Commerce
    National Oceanic and Atmospheric Administration
    National Weather Service
    1325 East West Highway
    Silver Spring, MD 20910
    Page Author: NWS Internet Services Team
Disclaimer
Information Quality
Credits
Glossary
Privacy Policy
Freedom of Information Act (FOIA)
About Us
Career Opportunities